createdAt,value
2018-11-05T00:00:29.088Z,34.33
2018-11-05T00:02:57.838Z,31.47
2018-11-05T00:05:26.499Z,31.90
2018-11-05T00:07:55.158Z,31.17
2018-11-05T00:10:23.805Z,32.43
2018-11-05T00:12:52.449Z,27.87
2018-11-05T00:15:21.479Z,31.73
2018-11-05T00:17:50.227Z,28.90
2018-11-05T00:20:18.914Z,30.07
2018-11-05T00:22:47.562Z,34.83
2018-11-05T00:25:16.218Z,32.40
2018-11-05T00:27:44.865Z,29.37
2018-11-05T00:30:14.478Z,27.07
2018-11-05T00:32:43.679Z,26.83
2018-11-05T00:35:12.494Z,26.37
2018-11-05T00:37:41.116Z,28.57
2018-11-05T00:40:12.566Z,28.37
2018-11-05T00:42:41.635Z,27.97
2018-11-05T00:45:11.305Z,25.20
2018-11-05T00:47:40.220Z,27.17
2018-11-05T00:50:11.935Z,25.73
2018-11-05T00:52:40.620Z,27.17
2018-11-05T00:55:10.081Z,26.13
2018-11-05T00:57:38.738Z,24.43
2018-11-05T01:00:13.621Z,25.87
2018-11-05T01:02:42.544Z,25.10
2018-11-05T01:05:12.473Z,24.83
2018-11-05T01:07:41.707Z,24.07
2018-11-05T01:10:11.640Z,26.47
2018-11-05T01:12:40.300Z,26.30
2018-11-05T01:15:11.617Z,26.77
2018-11-05T01:17:40.444Z,24.50
2018-11-05T01:20:10.741Z,27.67
2018-11-05T01:22:39.546Z,25.63
2018-11-05T01:25:08.329Z,25.13
2018-11-05T01:27:37.016Z,29.87
2018-11-05T01:30:12.160Z,24.47
2018-11-05T01:32:41.285Z,26.90
2018-11-05T01:35:11.552Z,26.93
2018-11-05T01:37:40.227Z,25.03
2018-11-05T01:40:12.229Z,25.33
2018-11-05T01:42:40.932Z,25.53
2018-11-05T01:45:10.922Z,25.70
2018-11-05T01:47:39.809Z,26.63
2018-11-05T01:50:10.161Z,24.80
2018-11-05T01:52:39.081Z,21.30
2018-11-05T01:55:08.849Z,24.27
2018-11-05T01:57:37.831Z,21.20
2018-11-05T02:00:11.963Z,23.27
2018-11-05T02:02:40.624Z,22.40
2018-11-05T02:05:10.522Z,23.43
2018-11-05T02:07:39.472Z,21.57
2018-11-05T02:12:53.335Z,21.00
2018-11-05T02:15:21.930Z,21.10
2018-11-05T02:17:50.617Z,18.20
2018-11-05T02:20:19.311Z,17.77
2018-11-05T02:22:47.983Z,19.97
2018-11-05T02:25:16.649Z,17.67
2018-11-05T02:27:45.314Z,17.37
2018-11-05T02:30:29.887Z,17.17
2018-11-05T02:32:58.574Z,18.57
2018-11-05T02:35:27.368Z,17.90
2018-11-05T02:37:55.993Z,16.97
2018-11-05T02:40:24.635Z,16.43
2018-11-05T02:42:53.287Z,17.50
2018-11-05T02:45:21.916Z,16.23
2018-11-05T02:47:50.540Z,18.03
2018-11-05T02:50:19.159Z,16.27
2018-11-05T02:52:48.273Z,14.80
2018-11-05T02:55:16.914Z,14.33
2018-11-05T02:57:45.549Z,14.53
2018-11-05T03:00:15.653Z,13.93
2018-11-05T03:02:44.547Z,12.93
2018-11-05T03:05:14.580Z,16.00
2018-11-05T03:07:43.925Z,16.17
2018-11-05T03:10:13.024Z,14.57
2018-11-05T03:12:42.225Z,17.20
2018-11-05T03:15:12.666Z,16.77
2018-11-05T03:17:41.357Z,17.73
2018-11-05T03:20:11.281Z,15.70
2018-11-05T03:22:40.647Z,18.37
2018-11-05T03:25:09.586Z,15.60
2018-11-05T03:27:38.649Z,14.97
2018-11-05T03:30:14.281Z,19.23
2018-11-05T03:32:42.983Z,18.20
2018-11-05T03:35:12.652Z,17.77
2018-11-05T03:37:42.078Z,17.90
2018-11-05T03:40:12.011Z,21.80
2018-11-05T03:42:41.357Z,19.77
2018-11-05T03:45:11.381Z,18.83
2018-11-05T03:47:40.117Z,18.30
2018-11-05T03:50:10.972Z,19.47
2018-11-05T03:52:39.679Z,19.50
2018-11-05T03:55:08.748Z,21.13
2018-11-05T03:57:37.477Z,21.47
2018-11-05T04:00:10.907Z,22.53
2018-11-05T04:02:39.578Z,22.33
2018-11-05T04:05:08.614Z,23.37
2018-11-05T04:07:37.323Z,24.50
2018-11-05T04:10:06.617Z,26.17
2018-11-05T04:12:35.258Z,26.50
2018-11-05T04:15:04.014Z,23.73
2018-11-05T04:17:32.704Z,25.10
2018-11-05T04:20:01.373Z,22.67
2018-11-05T04:22:30.026Z,26.60
2018-11-05T04:24:58.629Z,23.97
2018-11-05T04:27:27.296Z,26.87
2018-11-05T04:29:55.918Z,26.37
2018-11-05T04:32:24.583Z,24.87
2018-11-05T04:34:53.250Z,27.77
2018-11-05T04:37:21.891Z,27.83
2018-11-05T04:39:50.535Z,28.10
2018-11-05T04:42:19.202Z,25.40
2018-11-05T04:44:47.879Z,29.70
2018-11-05T04:47:16.613Z,30.03
2018-11-05T04:49:45.382Z,31.73
2018-11-05T04:52:14.071Z,30.63
2018-11-05T04:54:42.754Z,32.70
2018-11-05T04:57:11.407Z,34.13
2018-11-05T04:59:40.153Z,35.57
2018-11-05T05:02:08.825Z,30.63
2018-11-05T05:04:37.502Z,28.57
2018-11-05T05:07:06.223Z,32.87
2018-11-05T05:09:34.852Z,31.37
2018-11-05T05:12:03.529Z,32.77
2018-11-05T05:14:32.221Z,31.17
2018-11-05T05:17:00.925Z,30.10
2018-11-05T05:19:29.595Z,30.27
2018-11-05T05:21:58.265Z,31.00
2018-11-05T05:24:26.986Z,26.20
2018-11-05T05:26:55.989Z,27.10
2018-11-05T05:29:24.687Z,26.80
2018-11-05T05:31:53.334Z,28.40
2018-11-05T05:34:22.036Z,26.43
2018-11-05T05:36:50.673Z,32.60
2018-11-05T05:39:19.308Z,31.20
2018-11-05T05:41:47.959Z,27.63
2018-11-05T05:44:16.636Z,29.37
2018-11-05T05:46:45.285Z,26.33
2018-11-05T05:49:13.995Z,25.33
2018-11-05T05:51:42.919Z,22.60
2018-11-05T05:54:11.561Z,25.30
2018-11-05T05:56:40.231Z,22.27
2018-11-05T05:59:08.892Z,21.93
2018-11-05T06:01:37.564Z,25.07
2018-11-05T06:04:06.246Z,24.40
2018-11-05T06:06:34.926Z,25.77
2018-11-05T06:09:03.702Z,31.43
2018-11-05T06:11:32.380Z,37.87
2018-11-05T06:14:01.097Z,41.37
2018-11-05T06:16:29.818Z,28.67
2018-11-05T06:18:58.483Z,29.63
2018-11-05T06:21:27.197Z,22.23
2018-11-05T06:23:55.825Z,29.43
2018-11-05T06:26:24.458Z,27.77
2018-11-05T06:28:53.137Z,29.33
2018-11-05T06:31:21.835Z,25.43
2018-11-05T06:33:50.542Z,26.23
2018-11-05T06:36:19.227Z,29.10
2018-11-05T06:38:47.872Z,29.83
2018-11-05T06:41:16.616Z,37.30
2018-11-05T06:43:45.257Z,29.47
2018-11-05T06:46:13.919Z,32.20
2018-11-05T06:48:42.592Z,32.70
2018-11-05T06:51:11.235Z,30.40
2018-11-05T06:53:39.906Z,32.07
2018-11-05T06:56:08.661Z,30.80
2018-11-05T06:58:37.341Z,30.77
2018-11-05T07:01:06.229Z,32.17
2018-11-05T07:03:34.898Z,30.70
2018-11-05T07:06:03.731Z,40.00
2018-11-05T07:08:32.486Z,38.27
2018-11-05T07:11:01.141Z,35.73
2018-11-05T07:13:29.773Z,43.47
2018-11-05T07:15:58.440Z,45.23
2018-11-05T07:18:27.126Z,40.67
2018-11-05T07:20:55.845Z,42.27
2018-11-05T07:23:24.530Z,32.53
2018-11-05T07:25:53.255Z,31.60
2018-11-05T07:28:21.944Z,29.23
2018-11-05T07:30:50.578Z,30.67
2018-11-05T07:33:19.233Z,29.90
2018-11-05T07:35:47.854Z,27.43
2018-11-05T07:38:16.577Z,29.53
2018-11-05T07:40:45.272Z,23.00
2018-11-05T07:43:13.972Z,17.90
2018-11-05T07:45:42.720Z,24.07
2018-11-05T07:48:11.382Z,27.80
2018-11-05T07:50:40.096Z,18.60
2018-11-05T07:53:08.773Z,15.67
2018-11-05T07:55:37.473Z,16.07
2018-11-05T07:58:06.148Z,15.43
2018-11-05T08:00:40.097Z,15.07
2018-11-05T08:03:10.241Z,14.97
2018-11-05T08:05:38.954Z,16.57
2018-11-05T08:08:07.611Z,16.87
2018-11-05T08:10:36.253Z,16.80
2018-11-05T08:13:04.897Z,15.33
2018-11-05T08:15:33.530Z,15.30
2018-11-05T08:18:02.219Z,16.80
2018-11-05T08:20:30.868Z,15.30
2018-11-05T08:22:59.564Z,17.07
2018-11-05T08:25:28.266Z,14.93
2018-11-05T08:27:56.956Z,20.13
2018-11-05T08:30:26.347Z,18.33
2018-11-05T08:32:55.439Z,14.33
2018-11-05T08:35:24.079Z,14.60
2018-11-05T08:37:53.182Z,16.67
2018-11-05T08:40:23.781Z,16.67
2018-11-05T08:42:53.150Z,17.03
2018-11-05T08:45:23.155Z,16.23
2018-11-05T08:47:51.798Z,16.40
2018-11-05T08:50:21.556Z,14.90
2018-11-05T08:52:50.120Z,15.73
2018-11-05T08:55:21.238Z,14.27
2018-11-05T08:57:50.048Z,14.33
2018-11-05T09:00:24.319Z,13.63
2018-11-05T09:02:53.502Z,15.40
2018-11-05T09:05:22.334Z,14.83
2018-11-05T09:07:51.990Z,14.73
2018-11-05T09:10:20.929Z,16.20
2018-11-05T09:12:49.465Z,15.27
2018-11-05T09:15:19.462Z,16.70
2018-11-05T09:17:48.468Z,14.53
2018-11-05T09:20:18.094Z,14.20
2018-11-05T09:22:47.210Z,14.30
2018-11-05T09:25:16.540Z,15.50
2018-11-05T09:27:45.195Z,15.00
2018-11-05T09:30:18.929Z,15.10
2018-11-05T09:32:47.880Z,14.70
2018-11-05T09:35:16.585Z,19.07
2018-11-05T09:37:45.325Z,15.20
2018-11-05T09:40:19.182Z,15.43
2018-11-05T09:42:48.326Z,13.73
2018-11-05T09:45:20.111Z,15.27
2018-11-05T09:47:48.757Z,15.27
2018-11-05T09:50:18.198Z,14.20
2018-11-05T09:52:46.899Z,14.47
2018-11-05T09:55:16.033Z,15.13
2018-11-05T09:57:44.771Z,15.23
2018-11-05T10:00:17.581Z,14.33
2018-11-05T10:02:51.533Z,14.47
2018-11-05T10:05:20.362Z,15.97
2018-11-05T10:07:48.925Z,16.62
2018-11-05T10:10:18.257Z,16.73
2018-11-05T10:12:46.878Z,14.07
2018-11-05T10:15:16.621Z,15.23
2018-11-05T10:17:45.327Z,16.10
2018-11-05T10:20:16.189Z,16.10
2018-11-05T10:22:45.517Z,14.85
2018-11-05T10:25:17.320Z,14.70
2018-11-05T10:27:46.331Z,15.78
2018-11-05T10:30:17.400Z,14.40
2018-11-05T10:32:46.176Z,15.58
2018-11-05T10:35:15.700Z,16.50
2018-11-05T10:37:44.456Z,15.23
2018-11-05T10:40:16.100Z,15.15
2018-11-05T10:42:45.567Z,15.70
2018-11-05T10:45:15.500Z,22.13
2018-11-05T10:47:44.181Z,18.65
2018-11-05T10:50:14.079Z,20.02
2018-11-05T10:52:43.373Z,24.63
2018-11-05T10:55:11.986Z,19.87
2018-11-05T10:57:41.489Z,21.05
2018-11-05T11:00:18.642Z,24.12
2018-11-05T11:03:50.229Z,22.95
2018-11-05T11:06:18.883Z,18.45
2018-11-05T11:08:47.633Z,18.73
2018-11-05T11:11:16.311Z,18.17
2018-11-05T11:13:45.090Z,22.58
2018-11-05T11:16:13.758Z,21.00
2018-11-05T11:18:42.465Z,20.77
2018-11-05T11:21:11.122Z,23.07
2018-11-05T11:23:39.773Z,20.82
2018-11-05T11:26:08.418Z,20.80
2018-11-05T11:28:37.123Z,17.60
2018-11-05T11:31:05.849Z,15.25
2018-11-05T11:33:34.559Z,13.45
2018-11-05T11:36:03.213Z,17.07
2018-11-05T11:38:31.935Z,16.17
2018-11-05T11:41:00.641Z,15.65
2018-11-05T11:43:29.350Z,14.53
2018-11-05T11:45:58.016Z,15.68
2018-11-05T11:48:26.669Z,12.47
2018-11-05T11:50:55.310Z,12.93
2018-11-05T11:53:24.944Z,12.68
2018-11-05T11:55:53.566Z,12.45
2018-11-05T11:58:22.245Z,15.90
2018-11-05T12:00:50.934Z,12.53
2018-11-05T12:03:19.525Z,13.85
2018-11-05T12:05:48.162Z,11.85
2018-11-05T12:08:16.769Z,12.28
2018-11-05T12:10:45.446Z,13.22
2018-11-05T12:13:14.076Z,16.05
2018-11-05T12:15:42.706Z,13.25
2018-11-05T12:18:11.390Z,15.35
2018-11-05T12:20:40.051Z,13.75
2018-11-05T12:23:08.677Z,14.50
2018-11-05T12:25:37.275Z,15.00
2018-11-05T12:28:06.257Z,12.27
2018-11-05T12:30:34.897Z,11.30
2018-11-05T12:33:03.644Z,12.53
2018-11-05T12:35:32.272Z,11.27
2018-11-05T12:38:00.924Z,11.77
2018-11-05T12:40:29.621Z,11.87
2018-11-05T12:42:58.317Z,10.50
2018-11-05T12:45:26.980Z,8.77
2018-11-05T12:47:55.772Z,10.33
2018-11-05T12:50:24.722Z,10.00
2018-11-05T12:52:54.724Z,11.57
2018-11-05T12:55:23.453Z,9.50
2018-11-05T12:57:52.103Z,9.63
2018-11-05T13:00:22.372Z,13.37
2018-11-05T13:02:56.278Z,10.10
2018-11-05T13:05:26.196Z,11.33
2018-11-05T13:07:54.877Z,9.10
2018-11-05T13:10:23.646Z,10.23
2018-11-05T13:12:52.359Z,9.80
2018-11-05T13:15:21.073Z,11.33
2018-11-05T13:17:49.836Z,9.23
2018-11-05T13:20:20.671Z,7.90
2018-11-05T13:22:49.370Z,8.13
2018-11-05T13:25:18.097Z,8.23
2018-11-05T13:27:48.788Z,8.33
2018-11-05T13:30:17.697Z,9.83
2018-11-05T13:32:46.837Z,8.93
2018-11-05T13:35:17.616Z,8.03
2018-11-05T13:37:46.763Z,7.50
2018-11-05T13:40:19.278Z,9.73
2018-11-05T13:42:48.478Z,9.97
2018-11-05T13:45:17.429Z,12.90
2018-11-05T13:47:46.850Z,7.17
2018-11-05T13:50:15.735Z,7.30
2018-11-05T13:52:44.134Z,7.90
2018-11-05T13:55:14.227Z,8.80
2018-11-05T13:57:44.119Z,9.00
2018-11-05T14:00:14.538Z,8.70
2018-11-05T14:02:43.233Z,13.83
2018-11-05T14:05:12.370Z,11.33
2018-11-05T14:07:41.358Z,9.27
2018-11-05T14:10:12.557Z,8.00
2018-11-05T14:12:41.750Z,8.83
2018-11-05T14:15:10.420Z,8.60
2018-11-05T14:17:39.413Z,7.03
2018-11-05T14:20:09.292Z,6.97
2018-11-05T14:22:37.920Z,8.20
2018-11-05T14:25:08.024Z,8.60
2018-11-05T14:27:36.843Z,8.07
2018-11-05T14:30:13.295Z,9.80
2018-11-05T14:32:43.188Z,13.03
2018-11-05T14:35:11.875Z,10.27
2018-11-05T14:37:40.634Z,8.37
2018-11-05T14:40:11.069Z,12.60
2018-11-05T14:42:39.725Z,8.87
2018-11-05T14:45:10.630Z,10.03
2018-11-05T14:47:39.510Z,10.10
2018-11-05T14:50:10.202Z,10.50
2018-11-05T14:52:38.871Z,10.43
2018-11-05T14:55:09.421Z,13.37
2018-11-05T14:57:38.125Z,8.37
2018-11-05T15:00:16.620Z,12.20
2018-11-05T15:02:45.965Z,12.63
2018-11-05T15:05:15.246Z,9.30
2018-11-05T15:07:44.820Z,10.37
2018-11-05T15:10:14.641Z,14.53
2018-11-05T15:12:43.724Z,15.33
2018-11-05T15:15:13.265Z,16.53
2018-11-05T15:17:42.650Z,15.17
2018-11-05T15:20:13.351Z,16.53
2018-11-05T15:22:42.105Z,18.93
2018-11-05T15:25:11.110Z,18.77
2018-11-05T15:27:39.898Z,22.90
2018-11-05T15:30:11.023Z,28.13
2018-11-05T15:32:40.332Z,31.67
2018-11-05T15:35:09.171Z,35.93
2018-11-05T15:37:38.617Z,35.13
2018-11-05T15:40:08.124Z,35.77
2018-11-05T15:42:36.793Z,37.00
2018-11-05T15:45:06.786Z,41.17
2018-11-05T15:47:35.511Z,29.37
2018-11-05T15:50:05.574Z,36.43
2018-11-05T15:52:34.590Z,34.17
2018-11-05T15:55:03.019Z,37.67
2018-11-05T15:57:31.806Z,37.20
2018-11-05T16:00:00.443Z,43.10
2018-11-05T16:02:29.089Z,40.27
2018-11-05T16:04:57.754Z,45.80
2018-11-05T16:07:26.431Z,39.13
2018-11-05T16:09:55.112Z,36.50
2018-11-05T16:12:23.908Z,30.33
2018-11-05T16:14:52.564Z,35.73
2018-11-05T16:17:21.597Z,38.73
2018-11-05T16:19:50.235Z,34.43
2018-11-05T16:22:18.907Z,38.57
2018-11-05T16:24:47.551Z,37.87
2018-11-05T16:27:16.233Z,42.80
2018-11-05T16:29:44.890Z,44.53
2018-11-05T16:32:13.676Z,49.40
2018-11-05T16:34:42.555Z,48.60
2018-11-05T16:37:11.261Z,39.50
2018-11-05T16:39:40.418Z,29.93
2018-11-05T16:42:08.989Z,27.97
2018-11-05T16:44:37.683Z,29.60
2018-11-05T16:47:06.433Z,23.17
2018-11-05T16:49:35.082Z,22.43
2018-11-05T16:52:03.774Z,25.37
2018-11-05T16:54:32.505Z,26.10
2018-11-05T16:57:01.202Z,24.70
2018-11-05T16:59:29.885Z,26.63
2018-11-05T17:01:58.933Z,26.40
2018-11-05T17:04:27.253Z,20.03
2018-11-05T17:06:55.869Z,23.60
2018-11-05T17:09:24.534Z,20.23
2018-11-05T17:11:53.223Z,23.10
2018-11-05T17:14:21.874Z,28.00
2018-11-05T17:16:50.503Z,28.10
2018-11-05T17:19:19.189Z,22.57
2018-11-05T17:21:47.883Z,28.73
2018-11-05T17:24:16.514Z,30.07
2018-11-05T17:26:45.540Z,29.77
2018-11-05T17:29:14.530Z,28.93
2018-11-05T17:31:45.519Z,30.43
2018-11-05T17:34:14.149Z,32.83
2018-11-05T17:36:42.806Z,30.13
2018-11-05T17:39:12.861Z,30.43
2018-11-05T17:41:41.949Z,32.33
2018-11-05T17:44:12.366Z,31.10
2018-11-05T17:46:41.123Z,28.57
2018-11-05T17:49:11.898Z,31.00
2018-11-05T17:51:40.972Z,29.77
2018-11-05T17:54:09.650Z,24.57
2018-11-05T17:56:38.338Z,30.10
2018-11-05T17:59:07.138Z,29.17
2018-11-05T18:01:35.863Z,27.10
2018-11-05T18:04:04.725Z,28.10
2018-11-05T18:06:33.538Z,26.63
2018-11-05T18:09:02.368Z,31.27
2018-11-05T18:11:31.058Z,38.23
2018-11-05T18:13:59.770Z,34.57
2018-11-05T18:16:28.453Z,32.73
2018-11-05T18:18:59.142Z,38.00
2018-11-05T18:21:28.102Z,39.10
2018-11-05T18:23:57.238Z,39.43
2018-11-05T18:26:25.914Z,39.60
2018-11-05T18:28:54.530Z,35.20
2018-11-05T18:31:23.314Z,38.83
2018-11-05T18:33:52.026Z,39.97
2018-11-05T18:36:20.697Z,34.80
2018-11-05T18:38:49.406Z,30.93
2018-11-05T18:41:18.125Z,35.83
2018-11-05T18:43:46.792Z,36.20
2018-11-05T18:46:15.441Z,40.63
2018-11-05T18:48:44.111Z,38.40
2018-11-05T18:51:12.782Z,34.13
2018-11-05T18:53:41.541Z,32.43
2018-11-05T18:56:10.200Z,30.57
2018-11-05T18:58:41.101Z,30.67
2018-11-05T19:01:09.823Z,30.43
2018-11-05T19:03:38.547Z,24.73
2018-11-05T19:06:07.103Z,25.07
2018-11-05T19:08:36.427Z,28.03
2018-11-05T19:11:06.038Z,27.27
2018-11-05T19:13:35.770Z,24.97
2018-11-05T19:16:05.464Z,23.27
2018-11-05T19:18:34.216Z,27.87
2018-11-05T19:21:02.861Z,27.83
2018-11-05T19:23:31.509Z,27.90
2018-11-05T19:26:00.153Z,26.00
2018-11-05T19:28:28.812Z,29.13
2018-11-05T19:30:57.526Z,28.73
2018-11-05T19:33:27.105Z,34.17
2018-11-05T19:35:55.768Z,31.23
2018-11-05T19:38:24.403Z,37.43
2018-11-05T19:40:53.083Z,34.73
2018-11-05T19:43:21.744Z,33.80
2018-11-05T19:45:50.417Z,33.13
2018-11-05T19:48:19.070Z,35.30
2018-11-05T19:50:47.807Z,33.10
2018-11-05T19:53:16.413Z,36.80
2018-11-05T19:55:46.018Z,37.13
2018-11-05T19:58:14.673Z,33.63
2018-11-05T20:00:43.373Z,35.13
2018-11-05T20:03:12.038Z,37.17
2018-11-05T20:05:40.804Z,38.43
2018-11-05T20:08:09.471Z,43.23
2018-11-05T20:10:38.170Z,43.93
2018-11-05T20:13:06.907Z,43.40
2018-11-05T20:15:35.674Z,44.73
2018-11-05T20:18:04.397Z,39.30
2018-11-05T20:20:33.434Z,33.13
2018-11-05T20:23:02.176Z,30.53
2018-11-05T20:25:30.833Z,34.30
2018-11-05T20:27:59.484Z,29.53
2018-11-05T20:30:28.769Z,38.37
2018-11-05T20:32:58.488Z,34.07
2018-11-05T20:35:26.866Z,37.57
2018-11-05T20:37:55.552Z,34.90
2018-11-05T20:40:24.366Z,35.90
2018-11-05T20:42:53.639Z,37.23
2018-11-05T20:45:23.201Z,38.87
2018-11-05T20:47:51.881Z,43.00
2018-11-05T20:50:20.585Z,41.43
2018-11-05T20:52:49.233Z,45.30
2018-11-05T20:55:18.530Z,41.27
2018-11-05T20:57:47.335Z,42.10
2018-11-05T21:00:17.624Z,38.87
2018-11-05T21:02:46.280Z,35.27
2018-11-05T21:05:14.992Z,34.60
2018-11-05T21:07:44.021Z,35.50
2018-11-05T21:10:13.745Z,35.53
2018-11-05T21:12:43.125Z,31.60
2018-11-05T21:15:22.653Z,37.40
2018-11-05T21:17:52.345Z,38.10
2018-11-05T21:20:21.078Z,42.20
2018-11-05T21:22:50.528Z,49.00
2018-11-05T21:25:19.469Z,48.67
2018-11-05T21:27:48.161Z,53.50
2018-11-05T21:30:19.111Z,47.03
2018-11-05T21:32:47.886Z,47.60
2018-11-05T21:35:18.079Z,48.03
2018-11-05T21:37:48.644Z,47.97
2018-11-05T21:40:18.159Z,47.83
2018-11-05T21:42:47.494Z,48.53
2018-11-05T21:45:16.719Z,49.87
2018-11-05T21:47:45.886Z,48.37
2018-11-05T21:50:16.009Z,45.43
2018-11-05T21:52:45.176Z,45.10
2018-11-05T21:55:13.839Z,47.27
2018-11-05T21:57:44.629Z,55.20
2018-11-05T22:00:17.141Z,44.73
2018-11-05T22:02:51.064Z,46.70
2018-11-05T22:05:19.925Z,44.60
2018-11-05T22:07:48.895Z,51.57
2018-11-05T22:10:17.550Z,47.10
2018-11-05T22:12:46.721Z,52.00
2018-11-05T22:15:15.464Z,49.83
2018-11-05T22:17:44.117Z,55.77
2018-11-05T22:20:13.216Z,48.03
2018-11-05T22:22:42.281Z,47.53
2018-11-05T22:25:11.553Z,52.00
2018-11-05T22:27:40.608Z,56.73
2018-11-05T22:30:11.458Z,54.77
2018-11-05T22:32:40.069Z,53.37
2018-11-05T22:35:08.828Z,47.57
2018-11-05T22:37:37.763Z,57.70
2018-11-05T22:40:08.477Z,54.60
2018-11-05T22:42:37.149Z,53.97
2018-11-05T22:45:05.954Z,58.27
2018-11-05T22:47:34.577Z,53.53
2018-11-05T22:50:03.306Z,53.07
2018-11-05T22:52:31.968Z,55.07
2018-11-05T22:55:00.827Z,53.13
2018-11-05T22:57:29.506Z,55.53
2018-11-05T22:59:58.231Z,49.83
2018-11-05T23:02:26.852Z,55.57
2018-11-05T23:04:55.455Z,52.53
2018-11-05T23:07:24.057Z,48.57
2018-11-05T23:09:52.685Z,54.70
2018-11-05T23:12:21.321Z,47.63
2018-11-05T23:14:49.933Z,53.47
2018-11-05T23:17:18.602Z,53.57
2018-11-05T23:19:47.782Z,51.97
2018-11-05T23:22:16.431Z,49.27
2018-11-05T23:24:45.065Z,52.60
2018-11-05T23:27:13.666Z,48.33
2018-11-05T23:29:42.354Z,50.33
2018-11-05T23:32:11.096Z,52.83
2018-11-05T23:34:39.766Z,53.20
2018-11-05T23:37:08.354Z,54.67
2018-11-05T23:39:36.965Z,49.47
2018-11-05T23:42:05.657Z,52.87
2018-11-05T23:44:34.322Z,50.07
2018-11-05T23:47:03.008Z,46.53
2018-11-05T23:49:31.669Z,45.27
2018-11-05T23:52:00.585Z,51.53
2018-11-05T23:54:29.234Z,65.63
2018-11-05T23:56:57.802Z,49.17
2018-11-05T23:59:26.506Z,48.53
